sensor_id;sensor_type;location;lat;lon;timestamp;P1;durP1;ratioP1;P2;durP2;ratioP2
18796;SDS011;9526;52.612;13.300;2023-09-12T00:01:59;17.48;;;10.60;;
18796;SDS011;9526;52.612;13.300;2023-09-12T00:04:23;17.52;;;10.98;;
18796;SDS011;9526;52.612;13.300;2023-09-12T00:06:47;14.43;;;10.13;;
18796;SDS011;9526;52.612;13.300;2023-09-12T00:09:11;15.27;;;10.65;;
18796;SDS011;9526;52.612;13.300;2023-09-12T00:11:35;15.27;;;11.43;;
18796;SDS011;9526;52.612;13.300;2023-09-12T00:13:58;16.92;;;10.48;;
18796;SDS011;9526;52.612;13.300;2023-09-12T00:16:21;20.05;;;11.57;;
18796;SDS011;9526;52.612;13.300;2023-09-12T00:18:46;16.20;;;11.20;;
18796;SDS011;9526;52.612;13.300;2023-09-12T00:21:10;14.30;;;10.70;;
18796;SDS011;9526;52.612;13.300;2023-09-12T00:23:34;17.90;;;10.20;;
18796;SDS011;9526;52.612;13.300;2023-09-12T00:25:57;16.20;;;11.15;;
18796;SDS011;9526;52.612;13.300;2023-09-12T00:28:21;17.90;;;11.63;;
18796;SDS011;9526;52.612;13.300;2023-09-12T00:30:45;16.45;;;10.98;;
18796;SDS011;9526;52.612;13.300;2023-09-12T00:33:09;17.08;;;10.93;;
18796;SDS011;9526;52.612;13.300;2023-09-12T00:35:34;15.63;;;11.13;;
18796;SDS011;9526;52.612;13.300;2023-09-12T00:37:58;16.75;;;9.90;;
18796;SDS011;9526;52.612;13.300;2023-09-12T00:40:21;14.18;;;10.63;;
18796;SDS011;9526;52.612;13.300;2023-09-12T00:42:45;14.63;;;10.57;;
18796;SDS011;9526;52.612;13.300;2023-09-12T00:45:09;15.10;;;10.23;;
18796;SDS011;9526;52.612;13.300;2023-09-12T00:47:33;18.10;;;11.80;;
18796;SDS011;9526;52.612;13.300;2023-09-12T00:49:57;15.18;;;11.10;;
18796;SDS011;9526;52.612;13.300;2023-09-12T00:52:23;16.10;;;10.82;;
18796;SDS011;9526;52.612;13.300;2023-09-12T00:54:48;16.25;;;11.73;;
18796;SDS011;9526;52.612;13.300;2023-09-12T00:57:12;15.25;;;10.90;;
18796;SDS011;9526;52.612;13.300;2023-09-12T00:59:37;15.57;;;10.70;;
18796;SDS011;9526;52.612;13.300;2023-09-12T01:02:00;14.60;;;10.23;;
18796;SDS011;9526;52.612;13.300;2023-09-12T01:04:25;16.80;;;10.70;;
18796;SDS011;9526;52.612;13.300;2023-09-12T01:06:55;14.90;;;10.23;;
18796;SDS011;9526;52.612;13.300;2023-09-12T01:09:20;18.13;;;10.63;;
18796;SDS011;9526;52.612;13.300;2023-09-12T01:11:44;15.50;;;10.75;;
18796;SDS011;9526;52.612;13.300;2023-09-12T01:14:08;15.32;;;10.38;;
18796;SDS011;9526;52.612;13.300;2023-09-12T01:16:32;15.20;;;10.15;;
18796;SDS011;9526;52.612;13.300;2023-09-12T01:18:55;16.13;;;10.30;;
18796;SDS011;9526;52.612;13.300;2023-09-12T01:24:56;14.20;;;9.93;;
18796;SDS011;9526;52.612;13.300;2023-09-12T01:27:34;16.88;;;10.63;;
18796;SDS011;9526;52.612;13.300;2023-09-12T01:30:01;13.30;;;10.23;;
18796;SDS011;9526;52.612;13.300;2023-09-12T01:32:27;16.92;;;11.38;;
18796;SDS011;9526;52.612;13.300;2023-09-12T01:34:52;15.50;;;10.73;;
18796;SDS011;9526;52.612;13.300;2023-09-12T01:37:16;15.57;;;10.10;;
18796;SDS011;9526;52.612;13.300;2023-09-12T01:39:40;18.27;;;10.70;;
18796;SDS011;9526;52.612;13.300;2023-09-12T01:42:04;14.73;;;10.75;;
18796;SDS011;9526;52.612;13.300;2023-09-12T01:44:30;14.32;;;10.75;;
18796;SDS011;9526;52.612;13.300;2023-09-12T01:46:55;16.00;;;11.25;;
18796;SDS011;9526;52.612;13.300;2023-09-12T01:49:25;14.90;;;10.93;;
18796;SDS011;9526;52.612;13.300;2023-09-12T01:51:51;16.50;;;11.05;;
18796;SDS011;9526;52.612;13.300;2023-09-12T01:54:15;17.70;;;11.10;;
18796;SDS011;9526;52.612;13.300;2023-09-12T01:56:40;15.63;;;10.30;;
18796;SDS011;9526;52.612;13.300;2023-09-12T01:59:05;16.30;;;10.63;;
18796;SDS011;9526;52.612;13.300;2023-09-12T02:01:30;16.63;;;11.23;;
18796;SDS011;9526;52.612;13.300;2023-09-12T02:03:54;16.38;;;10.57;;
18796;SDS011;9526;52.612;13.300;2023-09-12T02:06:18;19.02;;;9.85;;
18796;SDS011;9526;52.612;13.300;2023-09-12T02:08:42;17.85;;;11.90;;
18796;SDS011;9526;52.612;13.300;2023-09-12T02:11:06;17.52;;;11.18;;
18796;SDS011;9526;52.612;13.300;2023-09-12T02:13:28;15.88;;;11.18;;
18796;SDS011;9526;52.612;13.300;2023-09-12T02:15:58;17.90;;;10.77;;
18796;SDS011;9526;52.612;13.300;2023-09-12T02:18:23;15.35;;;11.02;;
18796;SDS011;9526;52.612;13.300;2023-09-12T02:20:47;15.88;;;10.40;;
18796;SDS011;9526;52.612;13.300;2023-09-12T02:23:11;13.18;;;10.07;;
18796;SDS011;9526;52.612;13.300;2023-09-12T02:25:35;15.93;;;10.63;;
18796;SDS011;9526;52.612;13.300;2023-09-12T02:28:00;15.68;;;10.88;;
18796;SDS011;9526;52.612;13.300;2023-09-12T02:30:24;14.23;;;10.27;;
18796;SDS011;9526;52.612;13.300;2023-09-12T02:32:48;14.95;;;10.02;;
18796;SDS011;9526;52.612;13.300;2023-09-12T02:35:13;15.18;;;10.48;;
18796;SDS011;9526;52.612;13.300;2023-09-12T02:37:37;14.30;;;10.55;;
18796;SDS011;9526;52.612;13.300;2023-09-12T02:40:01;14.50;;;10.95;;
18796;SDS011;9526;52.612;13.300;2023-09-12T02:42:26;13.60;;;10.63;;
18796;SDS011;9526;52.612;13.300;2023-09-12T02:44:49;16.33;;;10.88;;
18796;SDS011;9526;52.612;13.300;2023-09-12T02:47:13;14.45;;;10.57;;
18796;SDS011;9526;52.612;13.300;2023-09-12T02:49:37;17.35;;;10.38;;
18796;SDS011;9526;52.612;13.300;2023-09-12T02:52:02;14.15;;;10.60;;
18796;SDS011;9526;52.612;13.300;2023-09-12T02:54:27;18.70;;;10.52;;
18796;SDS011;9526;52.612;13.300;2023-09-12T02:56:50;16.63;;;11.02;;
18796;SDS011;9526;52.612;13.300;2023-09-12T02:59:14;16.55;;;10.77;;
18796;SDS011;9526;52.612;13.300;2023-09-12T03:01:38;12.63;;;9.77;;
18796;SDS011;9526;52.612;13.300;2023-09-12T03:04:02;13.75;;;10.25;;
18796;SDS011;9526;52.612;13.300;2023-09-12T03:06:27;14.35;;;9.85;;
18796;SDS011;9526;52.612;13.300;2023-09-12T03:08:53;19.38;;;10.68;;
18796;SDS011;9526;52.612;13.300;2023-09-12T03:11:17;14.80;;;10.30;;
18796;SDS011;9526;52.612;13.300;2023-09-12T03:13:41;15.65;;;10.68;;
18796;SDS011;9526;52.612;13.300;2023-09-12T03:16:04;15.63;;;10.45;;
18796;SDS011;9526;52.612;13.300;2023-09-12T03:18:32;15.32;;;10.40;;
18796;SDS011;9526;52.612;13.300;2023-09-12T03:20:56;13.35;;;9.98;;
18796;SDS011;9526;52.612;13.300;2023-09-12T03:23:20;15.50;;;10.23;;
18796;SDS011;9526;52.612;13.300;2023-09-12T03:25:45;14.38;;;10.30;;
18796;SDS011;9526;52.612;13.300;2023-09-12T03:28:09;15.50;;;10.32;;
18796;SDS011;9526;52.612;13.300;2023-09-12T03:30:34;12.98;;;9.55;;
18796;SDS011;9526;52.612;13.300;2023-09-12T03:33:01;13.57;;;10.07;;
18796;SDS011;9526;52.612;13.300;2023-09-12T03:35:25;14.95;;;10.07;;
18796;SDS011;9526;52.612;13.300;2023-09-12T03:37:49;17.67;;;10.40;;
18796;SDS011;9526;52.612;13.300;2023-09-12T03:40:13;13.93;;;10.30;;
18796;SDS011;9526;52.612;13.300;2023-09-12T03:42:38;14.20;;;9.90;;
18796;SDS011;9526;52.612;13.300;2023-09-12T03:45:04;16.83;;;10.70;;
18796;SDS011;9526;52.612;13.300;2023-09-12T03:47:29;12.65;;;9.55;;
18796;SDS011;9526;52.612;13.300;2023-09-12T03:49:53;16.13;;;10.68;;
18796;SDS011;9526;52.612;13.300;2023-09-12T03:52:17;22.30;;;11.30;;
18796;SDS011;9526;52.612;13.300;2023-09-12T03:54:41;16.30;;;10.40;;
18796;SDS011;9526;52.612;13.300;2023-09-12T03:57:05;13.70;;;10.18;;
18796;SDS011;9526;52.612;13.300;2023-09-12T03:59:30;16.08;;;10.15;;
18796;SDS011;9526;52.612;13.300;2023-09-12T04:01:53;20.23;;;10.43;;
18796;SDS011;9526;52.612;13.300;2023-09-12T04:04:17;19.67;;;10.60;;
18796;SDS011;9526;52.612;13.300;2023-09-12T04:06:41;15.90;;;10.23;;
18796;SDS011;9526;52.612;13.300;2023-09-12T04:09:06;16.00;;;10.40;;
18796;SDS011;9526;52.612;13.300;2023-09-12T04:11:29;16.08;;;10.02;;
18796;SDS011;9526;52.612;13.300;2023-09-12T04:14:07;12.65;;;9.75;;
18796;SDS011;9526;52.612;13.300;2023-09-12T04:16:32;15.50;;;9.73;;
18796;SDS011;9526;52.612;13.300;2023-09-12T04:18:58;15.18;;;10.25;;
18796;SDS011;9526;52.612;13.300;2023-09-12T04:21:22;16.33;;;10.77;;
18796;SDS011;9526;52.612;13.300;2023-09-12T04:23:47;16.00;;;10.43;;
18796;SDS011;9526;52.612;13.300;2023-09-12T04:26:11;18.27;;;11.18;;
18796;SDS011;9526;52.612;13.300;2023-09-12T04:28:35;14.93;;;9.93;;
18796;SDS011;9526;52.612;13.300;2023-09-12T04:31:02;14.18;;;10.45;;
18796;SDS011;9526;52.612;13.300;2023-09-12T04:33:27;16.63;;;9.98;;
18796;SDS011;9526;52.612;13.300;2023-09-12T04:35:51;13.40;;;9.68;;
18796;SDS011;9526;52.612;13.300;2023-09-12T04:38:14;19.60;;;10.75;;
18796;SDS011;9526;52.612;13.300;2023-09-12T04:40:38;14.63;;;10.43;;
18796;SDS011;9526;52.612;13.300;2023-09-12T04:43:02;15.20;;;10.57;;
18796;SDS011;9526;52.612;13.300;2023-09-12T04:45:26;15.40;;;10.95;;
18796;SDS011;9526;52.612;13.300;2023-09-12T04:47:50;20.95;;;11.45;;
18796;SDS011;9526;52.612;13.300;2023-09-12T04:50:15;17.75;;;10.80;;
18796;SDS011;9526;52.612;13.300;2023-09-12T04:52:39;14.93;;;10.07;;
18796;SDS011;9526;52.612;13.300;2023-09-12T04:55:03;18.27;;;10.65;;
18796;SDS011;9526;52.612;13.300;2023-09-12T04:57:28;16.83;;;10.80;;
18796;SDS011;9526;52.612;13.300;2023-09-12T04:59:53;14.18;;;10.38;;
18796;SDS011;9526;52.612;13.300;2023-09-12T05:02:16;15.77;;;10.70;;
18796;SDS011;9526;52.612;13.300;2023-09-12T05:04:40;14.90;;;10.95;;
18796;SDS011;9526;52.612;13.300;2023-09-12T05:07:05;16.63;;;10.60;;
18796;SDS011;9526;52.612;13.300;2023-09-12T05:09:29;20.20;;;11.07;;
18796;SDS011;9526;52.612;13.300;2023-09-12T05:11:53;20.35;;;12.07;;
18796;SDS011;9526;52.612;13.300;2023-09-12T05:14:16;17.88;;;11.02;;
18796;SDS011;9526;52.612;13.300;2023-09-12T05:16:41;17.08;;;11.05;;
18796;SDS011;9526;52.612;13.300;2023-09-12T05:19:05;18.25;;;11.65;;
18796;SDS011;9526;52.612;13.300;2023-09-12T05:21:29;22.10;;;11.27;;
18796;SDS011;9526;52.612;13.300;2023-09-12T05:23:54;17.50;;;11.77;;
18796;SDS011;9526;52.612;13.300;2023-09-12T05:26:18;21.55;;;11.52;;
18796;SDS011;9526;52.612;13.300;2023-09-12T05:28:41;20.92;;;12.07;;
18796;SDS011;9526;52.612;13.300;2023-09-12T05:31:05;17.88;;;12.07;;
18796;SDS011;9526;52.612;13.300;2023-09-12T05:33:30;15.85;;;11.35;;
18796;SDS011;9526;52.612;13.300;2023-09-12T05:35:55;19.55;;;11.30;;
18796;SDS011;9526;52.612;13.300;2023-09-12T05:38:18;20.02;;;11.70;;
18796;SDS011;9526;52.612;13.300;2023-09-12T05:40:43;18.77;;;11.48;;
18796;SDS011;9526;52.612;13.300;2023-09-12T05:43:07;17.88;;;10.77;;
18796;SDS011;9526;52.612;13.300;2023-09-12T05:45:31;15.52;;;11.65;;
18796;SDS011;9526;52.612;13.300;2023-09-12T05:47:56;19.25;;;11.45;;
18796;SDS011;9526;52.612;13.300;2023-09-12T05:50:20;18.52;;;11.52;;
18796;SDS011;9526;52.612;13.300;2023-09-12T05:52:44;18.17;;;11.43;;
18796;SDS011;9526;52.612;13.300;2023-09-12T05:55:09;17.95;;;10.80;;
18796;SDS011;9526;52.612;13.300;2023-09-12T05:57:34;17.65;;;11.30;;
18796;SDS011;9526;52.612;13.300;2023-09-12T05:59:59;18.90;;;12.23;;
18796;SDS011;9526;52.612;13.300;2023-09-12T06:02:32;18.42;;;11.38;;
18796;SDS011;9526;52.612;13.300;2023-09-12T06:04:56;17.75;;;11.65;;
18796;SDS011;9526;52.612;13.300;2023-09-12T06:07:20;18.48;;;11.80;;
18796;SDS011;9526;52.612;13.300;2023-09-12T06:09:44;18.02;;;11.80;;
18796;SDS011;9526;52.612;13.300;2023-09-12T06:12:09;16.05;;;11.43;;
18796;SDS011;9526;52.612;13.300;2023-09-12T06:14:34;15.25;;;11.65;;
18796;SDS011;9526;52.612;13.300;2023-09-12T06:16:58;17.40;;;11.93;;
18796;SDS011;9526;52.612;13.300;2023-09-12T06:19:22;16.73;;;11.55;;
18796;SDS011;9526;52.612;13.300;2023-09-12T06:21:46;14.07;;;10.55;;
18796;SDS011;9526;52.612;13.300;2023-09-12T06:24:10;15.77;;;11.10;;
18796;SDS011;9526;52.612;13.300;2023-09-12T06:26:36;17.25;;;11.30;;
18796;SDS011;9526;52.612;13.300;2023-09-12T06:29:00;15.88;;;10.80;;
18796;SDS011;9526;52.612;13.300;2023-09-12T06:31:27;26.23;;;10.50;;
18796;SDS011;9526;52.612;13.300;2023-09-12T06:33:50;14.05;;;10.23;;
18796;SDS011;9526;52.612;13.300;2023-09-12T06:36:15;14.18;;;9.95;;
18796;SDS011;9526;52.612;13.300;2023-09-12T06:38:38;14.20;;;11.30;;
18796;SDS011;9526;52.612;13.300;2023-09-12T06:41:03;16.92;;;10.88;;
18796;SDS011;9526;52.612;13.300;2023-09-12T06:43:26;14.20;;;10.80;;
18796;SDS011;9526;52.612;13.300;2023-09-12T06:45:50;15.15;;;10.30;;
18796;SDS011;9526;52.612;13.300;2023-09-12T06:48:16;12.98;;;9.80;;
18796;SDS011;9526;52.612;13.300;2023-09-12T06:50:40;18.08;;;10.25;;
18796;SDS011;9526;52.612;13.300;2023-09-12T06:53:09;14.70;;;9.98;;
18796;SDS011;9526;52.612;13.300;2023-09-12T06:55:34;14.35;;;10.40;;
18796;SDS011;9526;52.612;13.300;2023-09-12T06:57:59;15.15;;;9.90;;
18796;SDS011;9526;52.612;13.300;2023-09-12T07:00:23;13.75;;;9.48;;
18796;SDS011;9526;52.612;13.300;2023-09-12T07:02:48;12.75;;;9.82;;
18796;SDS011;9526;52.612;13.300;2023-09-12T07:05:14;14.32;;;9.70;;
18796;SDS011;9526;52.612;13.300;2023-09-12T07:07:38;12.75;;;8.55;;
18796;SDS011;9526;52.612;13.300;2023-09-12T07:10:02;15.75;;;9.10;;
18796;SDS011;9526;52.612;13.300;2023-09-12T07:12:43;17.00;;;8.60;;
18796;SDS011;9526;52.612;13.300;2023-09-12T07:15:08;11.95;;;8.65;;
18796;SDS011;9526;52.612;13.300;2023-09-12T07:17:33;14.85;;;8.90;;
18796;SDS011;9526;52.612;13.300;2023-09-12T07:19:57;15.02;;;8.27;;
18796;SDS011;9526;52.612;13.300;2023-09-12T07:22:23;16.38;;;8.40;;
18796;SDS011;9526;52.612;13.300;2023-09-12T07:24:47;12.30;;;8.48;;
18796;SDS011;9526;52.612;13.300;2023-09-12T07:27:11;12.63;;;8.13;;
18796;SDS011;9526;52.612;13.300;2023-09-12T07:29:35;13.02;;;8.13;;
18796;SDS011;9526;52.612;13.300;2023-09-12T07:32:00;14.38;;;8.88;;
18796;SDS011;9526;52.612;13.300;2023-09-12T07:34:24;11.73;;;7.57;;
18796;SDS011;9526;52.612;13.300;2023-09-12T07:36:48;12.18;;;8.18;;
18796;SDS011;9526;52.612;13.300;2023-09-12T07:39:14;12.32;;;7.90;;
18796;SDS011;9526;52.612;13.300;2023-09-12T07:41:38;11.63;;;8.02;;
18796;SDS011;9526;52.612;13.300;2023-09-12T07:44:02;13.15;;;7.80;;
18796;SDS011;9526;52.612;13.300;2023-09-12T07:46:26;16.60;;;8.07;;
18796;SDS011;9526;52.612;13.300;2023-09-12T07:48:50;13.23;;;7.63;;
18796;SDS011;9526;52.612;13.300;2023-09-12T07:51:15;13.23;;;7.55;;
18796;SDS011;9526;52.612;13.300;2023-09-12T07:53:40;12.85;;;7.93;;
18796;SDS011;9526;52.612;13.300;2023-09-12T07:56:06;17.20;;;7.95;;
18796;SDS011;9526;52.612;13.300;2023-09-12T07:58:32;14.73;;;7.88;;
18796;SDS011;9526;52.612;13.300;2023-09-12T08:00:56;12.68;;;8.07;;
18796;SDS011;9526;52.612;13.300;2023-09-12T08:03:19;15.27;;;8.00;;
18796;SDS011;9526;52.612;13.300;2023-09-12T08:05:43;11.43;;;7.38;;
18796;SDS011;9526;52.612;13.300;2023-09-12T08:08:07;15.63;;;7.88;;
18796;SDS011;9526;52.612;13.300;2023-09-12T08:10:32;13.05;;;7.60;;
18796;SDS011;9526;52.612;13.300;2023-09-12T08:12:57;13.13;;;7.22;;
18796;SDS011;9526;52.612;13.300;2023-09-12T08:15:20;12.00;;;7.25;;
18796;SDS011;9526;52.612;13.300;2023-09-12T08:17:44;12.30;;;7.18;;
18796;SDS011;9526;52.612;13.300;2023-09-12T08:20:13;10.68;;;7.32;;
18796;SDS011;9526;52.612;13.300;2023-09-12T08:22:37;11.75;;;7.70;;
18796;SDS011;9526;52.612;13.300;2023-09-12T08:25:01;12.30;;;7.38;;
18796;SDS011;9526;52.612;13.300;2023-09-12T08:27:24;11.73;;;7.35;;
18796;SDS011;9526;52.612;13.300;2023-09-12T08:29:50;12.52;;;7.22;;
18796;SDS011;9526;52.612;13.300;2023-09-12T08:32:13;15.02;;;7.07;;
18796;SDS011;9526;52.612;13.300;2023-09-12T08:34:37;12.60;;;6.85;;
18796;SDS011;9526;52.612;13.300;2023-09-12T08:37:01;16.40;;;6.80;;
18796;SDS011;9526;52.612;13.300;2023-09-12T08:39:25;14.45;;;7.50;;
18796;SDS011;9526;52.612;13.300;2023-09-12T08:41:50;15.82;;;7.28;;
18796;SDS011;9526;52.612;13.300;2023-09-12T08:44:14;16.20;;;7.00;;
18796;SDS011;9526;52.612;13.300;2023-09-12T08:46:40;14.30;;;7.00;;
18796;SDS011;9526;52.612;13.300;2023-09-12T08:49:05;14.07;;;6.80;;
18796;SDS011;9526;52.612;13.300;2023-09-12T08:51:31;13.30;;;7.95;;
18796;SDS011;9526;52.612;13.300;2023-09-12T08:53:55;15.68;;;7.63;;
18796;SDS011;9526;52.612;13.300;2023-09-12T08:56:19;11.35;;;6.65;;
18796;SDS011;9526;52.612;13.300;2023-09-12T08:58:42;16.52;;;6.97;;
18796;SDS011;9526;52.612;13.300;2023-09-12T09:01:07;14.65;;;7.53;;
18796;SDS011;9526;52.612;13.300;2023-09-12T09:03:33;16.58;;;6.80;;
18796;SDS011;9526;52.612;13.300;2023-09-12T09:05:58;13.70;;;7.70;;
18796;SDS011;9526;52.612;13.300;2023-09-12T09:08:23;14.90;;;7.95;;
18796;SDS011;9526;52.612;13.300;2023-09-12T09:10:55;10.80;;;7.53;;
18796;SDS011;9526;52.612;13.300;2023-09-12T09:13:19;13.02;;;7.40;;
18796;SDS011;9526;52.612;13.300;2023-09-12T09:15:43;22.17;;;8.20;;
18796;SDS011;9526;52.612;13.300;2023-09-12T09:18:07;12.02;;;7.35;;
18796;SDS011;9526;52.612;13.300;2023-09-12T09:20:36;16.38;;;7.85;;
18796;SDS011;9526;52.612;13.300;2023-09-12T09:23:01;11.48;;;7.53;;
18796;SDS011;9526;52.612;13.300;2023-09-12T09:25:28;13.43;;;7.80;;
18796;SDS011;9526;52.612;13.300;2023-09-12T09:27:52;12.70;;;7.57;;
18796;SDS011;9526;52.612;13.300;2023-09-12T09:30:16;14.60;;;7.90;;
18796;SDS011;9526;52.612;13.300;2023-09-12T09:32:41;16.55;;;8.73;;
18796;SDS011;9526;52.612;13.300;2023-09-12T09:35:07;18.70;;;9.27;;
18796;SDS011;9526;52.612;13.300;2023-09-12T09:37:34;16.35;;;8.65;;
18796;SDS011;9526;52.612;13.300;2023-09-12T09:39:58;19.33;;;8.45;;
18796;SDS011;9526;52.612;13.300;2023-09-12T09:42:22;19.17;;;8.90;;
18796;SDS011;9526;52.612;13.300;2023-09-12T09:44:47;15.88;;;8.52;;
18796;SDS011;9526;52.612;13.300;2023-09-12T09:47:12;13.85;;;8.57;;
18796;SDS011;9526;52.612;13.300;2023-09-12T09:49:35;17.17;;;8.40;;
18796;SDS011;9526;52.612;13.300;2023-09-12T09:51:59;14.32;;;8.45;;
18796;SDS011;9526;52.612;13.300;2023-09-12T09:54:28;17.55;;;8.60;;
18796;SDS011;9526;52.612;13.300;2023-09-12T09:56:52;12.98;;;7.88;;
18796;SDS011;9526;52.612;13.300;2023-09-12T09:59:18;15.20;;;8.77;;
18796;SDS011;9526;52.612;13.300;2023-09-12T10:01:44;19.60;;;8.95;;
18796;SDS011;9526;52.612;13.300;2023-09-12T10:04:08;15.90;;;8.70;;
18796;SDS011;9526;52.612;13.300;2023-09-12T10:06:33;15.57;;;8.40;;
18796;SDS011;9526;52.612;13.300;2023-09-12T10:09:00;14.07;;;7.72;;
18796;SDS011;9526;52.612;13.300;2023-09-12T10:11:30;13.30;;;7.68;;
18796;SDS011;9526;52.612;13.300;2023-09-12T10:13:56;16.90;;;7.82;;
18796;SDS011;9526;52.612;13.300;2023-09-12T10:16:24;13.75;;;7.63;;
18796;SDS011;9526;52.612;13.300;2023-09-12T10:18:55;10.20;;;7.38;;
18796;SDS011;9526;52.612;13.300;2023-09-12T10:21:24;17.30;;;8.23;;
18796;SDS011;9526;52.612;13.300;2023-09-12T10:23:53;10.52;;;7.45;;
18796;SDS011;9526;52.612;13.300;2023-09-12T10:26:19;16.25;;;7.55;;
18796;SDS011;9526;52.612;13.300;2023-09-12T10:28:47;12.85;;;6.72;;
18796;SDS011;9526;52.612;13.300;2023-09-12T10:31:13;9.93;;;6.65;;
18796;SDS011;9526;52.612;13.300;2023-09-12T10:33:38;12.73;;;7.38;;
18796;SDS011;9526;52.612;13.300;2023-09-12T10:36:03;14.73;;;6.70;;
18796;SDS011;9526;52.612;13.300;2023-09-12T10:38:28;11.50;;;7.10;;
18796;SDS011;9526;52.612;13.300;2023-09-12T10:40:55;14.40;;;7.00;;
18796;SDS011;9526;52.612;13.300;2023-09-12T10:43:20;13.23;;;6.72;;
18796;SDS011;9526;52.612;13.300;2023-09-12T10:45:47;8.13;;;6.13;;
18796;SDS011;9526;52.612;13.300;2023-09-12T10:48:12;9.75;;;5.15;;
18796;SDS011;9526;52.612;13.300;2023-09-12T10:50:37;11.30;;;4.95;;
18796;SDS011;9526;52.612;13.300;2023-09-12T10:53:08;9.40;;;5.05;;
18796;SDS011;9526;52.612;13.300;2023-09-12T10:55:34;6.57;;;4.78;;
18796;SDS011;9526;52.612;13.300;2023-09-12T10:58:01;7.65;;;5.45;;
18796;SDS011;9526;52.612;13.300;2023-09-12T11:00:26;8.80;;;5.55;;
18796;SDS011;9526;52.612;13.300;2023-09-12T11:02:51;7.43;;;4.90;;
18796;SDS011;9526;52.612;13.300;2023-09-12T11:07:59;7.95;;;4.75;;
18796;SDS011;9526;52.612;13.300;2023-09-12T11:10:25;8.50;;;4.90;;
18796;SDS011;9526;52.612;13.300;2023-09-12T11:12:53;7.57;;;5.15;;
18796;SDS011;9526;52.612;13.300;2023-09-12T11:15:19;8.18;;;4.72;;
18796;SDS011;9526;52.612;13.300;2023-09-12T11:17:44;10.38;;;4.75;;
18796;SDS011;9526;52.612;13.300;2023-09-12T11:20:10;9.20;;;5.05;;
18796;SDS011;9526;52.612;13.300;2023-09-12T11:22:36;7.95;;;4.90;;
18796;SDS011;9526;52.612;13.300;2023-09-12T11:25:02;7.40;;;5.05;;
18796;SDS011;9526;52.612;13.300;2023-09-12T11:27:30;8.20;;;5.30;;
18796;SDS011;9526;52.612;13.300;2023-09-12T11:30:01;9.50;;;4.60;;
18796;SDS011;9526;52.612;13.300;2023-09-12T11:32:29;7.07;;;4.60;;
18796;SDS011;9526;52.612;13.300;2023-09-12T11:34:55;9.85;;;4.85;;
18796;SDS011;9526;52.612;13.300;2023-09-12T11:37:23;8.30;;;4.78;;
18796;SDS011;9526;52.612;13.300;2023-09-12T11:39:48;7.20;;;5.32;;
18796;SDS011;9526;52.612;13.300;2023-09-12T11:42:12;9.48;;;5.55;;
18796;SDS011;9526;52.612;13.300;2023-09-12T11:44:36;9.35;;;4.70;;
18796;SDS011;9526;52.612;13.300;2023-09-12T11:47:01;6.03;;;4.32;;
18796;SDS011;9526;52.612;13.300;2023-09-12T11:49:28;9.32;;;4.40;;
18796;SDS011;9526;52.612;13.300;2023-09-12T11:51:58;5.55;;;4.47;;
18796;SDS011;9526;52.612;13.300;2023-09-12T11:54:25;7.70;;;4.50;;
18796;SDS011;9526;52.612;13.300;2023-09-12T11:56:49;7.00;;;4.50;;
18796;SDS011;9526;52.612;13.300;2023-09-12T11:59:18;8.52;;;4.78;;
18796;SDS011;9526;52.612;13.300;2023-09-12T12:01:43;7.18;;;4.55;;
18796;SDS011;9526;52.612;13.300;2023-09-12T12:04:07;6.70;;;4.53;;
18796;SDS011;9526;52.612;13.300;2023-09-12T12:06:32;5.55;;;4.32;;
18796;SDS011;9526;52.612;13.300;2023-09-12T12:08:57;7.18;;;4.05;;
18796;SDS011;9526;52.612;13.300;2023-09-12T12:11:22;5.40;;;4.03;;
18796;SDS011;9526;52.612;13.300;2023-09-12T12:13:50;5.53;;;4.35;;
18796;SDS011;9526;52.612;13.300;2023-09-12T12:16:14;6.13;;;4.25;;
18796;SDS011;9526;52.612;13.300;2023-09-12T12:18:39;10.40;;;4.75;;
18796;SDS011;9526;52.612;13.300;2023-09-12T12:21:03;8.52;;;4.78;;
18796;SDS011;9526;52.612;13.300;2023-09-12T12:23:27;6.85;;;4.95;;
18796;SDS011;9526;52.612;13.300;2023-09-12T12:25:51;11.95;;;4.80;;
18796;SDS011;9526;52.612;13.300;2023-09-12T12:28:16;6.90;;;4.60;;
18796;SDS011;9526;52.612;13.300;2023-09-12T12:30:40;10.02;;;4.50;;
18796;SDS011;9526;52.612;13.300;2023-09-12T12:33:06;8.40;;;4.60;;
18796;SDS011;9526;52.612;13.300;2023-09-12T12:35:58;5.40;;;4.15;;
18796;SDS011;9526;52.612;13.300;2023-09-12T12:38:23;4.88;;;3.72;;
18796;SDS011;9526;52.612;13.300;2023-09-12T12:40:47;7.38;;;4.57;;
18796;SDS011;9526;52.612;13.300;2023-09-12T12:43:17;7.07;;;4.30;;
18796;SDS011;9526;52.612;13.300;2023-09-12T12:45:51;4.80;;;4.30;;
18796;SDS011;9526;52.612;13.300;2023-09-12T12:48:16;9.15;;;5.13;;
18796;SDS011;9526;52.612;13.300;2023-09-12T12:50:40;5.32;;;4.20;;
18796;SDS011;9526;52.612;13.300;2023-09-12T12:53:05;7.07;;;4.50;;
18796;SDS011;9526;52.612;13.300;2023-09-12T12:55:29;7.50;;;4.20;;
18796;SDS011;9526;52.612;13.300;2023-09-12T12:57:56;7.45;;;4.45;;
18796;SDS011;9526;52.612;13.300;2023-09-12T13:00:21;6.38;;;4.50;;
18796;SDS011;9526;52.612;13.300;2023-09-12T13:02:45;6.70;;;4.10;;
18796;SDS011;9526;52.612;13.300;2023-09-12T13:05:19;7.07;;;4.30;;
18796;SDS011;9526;52.612;13.300;2023-09-12T13:07:47;5.53;;;4.50;;
18796;SDS011;9526;52.612;13.300;2023-09-12T13:10:13;8.15;;;4.45;;
18796;SDS011;9526;52.612;13.300;2023-09-12T13:12:37;7.18;;;4.35;;
18796;SDS011;9526;52.612;13.300;2023-09-12T13:15:01;9.55;;;4.53;;
18796;SDS011;9526;52.612;13.300;2023-09-12T13:17:26;5.13;;;4.00;;
18796;SDS011;9526;52.612;13.300;2023-09-12T13:19:50;6.80;;;4.15;;
18796;SDS011;9526;52.612;13.300;2023-09-12T13:22:14;11.35;;;4.53;;
18796;SDS011;9526;52.612;13.300;2023-09-12T13:24:37;7.18;;;4.55;;
18796;SDS011;9526;52.612;13.300;2023-09-12T13:27:01;7.00;;;4.20;;
18796;SDS011;9526;52.612;13.300;2023-09-12T13:29:25;6.63;;;4.22;;
18796;SDS011;9526;52.612;13.300;2023-09-12T13:31:48;8.85;;;4.95;;
18796;SDS011;9526;52.612;13.300;2023-09-12T13:34:14;6.85;;;4.78;;
18796;SDS011;9526;52.612;13.300;2023-09-12T13:36:39;6.80;;;4.38;;
18796;SDS011;9526;52.612;13.300;2023-09-12T13:39:04;9.48;;;4.38;;
18796;SDS011;9526;52.612;13.300;2023-09-12T13:41:29;5.93;;;4.18;;
18796;SDS011;9526;52.612;13.300;2023-09-12T13:43:53;6.30;;;3.70;;
18796;SDS011;9526;52.612;13.300;2023-09-12T13:46:16;8.50;;;4.70;;
18796;SDS011;9526;52.612;13.300;2023-09-12T13:48:40;6.88;;;4.30;;
18796;SDS011;9526;52.612;13.300;2023-09-12T13:51:05;8.30;;;4.45;;
18796;SDS011;9526;52.612;13.300;2023-09-12T13:53:29;9.50;;;4.57;;
18796;SDS011;9526;52.612;13.300;2023-09-12T13:55:53;8.93;;;4.65;;
18796;SDS011;9526;52.612;13.300;2023-09-12T13:58:18;6.97;;;4.50;;
18796;SDS011;9526;52.612;13.300;2023-09-12T14:00:43;5.60;;;4.25;;
18796;SDS011;9526;52.612;13.300;2023-09-12T14:03:08;8.13;;;4.38;;
18796;SDS011;9526;52.612;13.300;2023-09-12T14:05:32;9.25;;;4.75;;
18796;SDS011;9526;52.612;13.300;2023-09-12T14:07:58;8.77;;;4.20;;
18796;SDS011;9526;52.612;13.300;2023-09-12T14:10:23;7.05;;;4.57;;
18796;SDS011;9526;52.612;13.300;2023-09-12T14:12:58;13.35;;;4.70;;
18796;SDS011;9526;52.612;13.300;2023-09-12T14:15:40;8.80;;;4.03;;
18796;SDS011;9526;52.612;13.300;2023-09-12T14:18:04;6.88;;;3.75;;
18796;SDS011;9526;52.612;13.300;2023-09-12T14:20:29;8.02;;;3.38;;
18796;SDS011;9526;52.612;13.300;2023-09-12T14:22:53;6.90;;;3.15;;
18796;SDS011;9526;52.612;13.300;2023-09-12T14:25:20;7.85;;;3.10;;